createdAt,value
2023-03-14T00:00:11.042Z,25.60
2023-03-14T00:02:40.640Z,16.08
2023-03-14T00:05:10.244Z,16.73
2023-03-14T00:07:41.913Z,20.08
2023-03-14T00:10:14.368Z,18.02
2023-03-14T00:12:42.397Z,13.55
2023-03-14T00:15:11.582Z,15.65
2023-03-14T00:17:41.205Z,15.38
2023-03-14T00:20:12.119Z,11.85
2023-03-14T00:22:40.916Z,13.93
2023-03-14T00:25:10.210Z,18.65
2023-03-14T00:27:38.519Z,13.18
2023-03-14T00:30:08.864Z,17.05
2023-03-14T00:32:37.206Z,18.08
2023-03-14T00:35:07.172Z,13.40
2023-03-14T00:37:34.972Z,15.70
2023-03-14T00:40:03.151Z,15.55
2023-03-14T00:42:30.960Z,15.45
2023-03-14T00:44:58.739Z,19.55
2023-03-14T00:47:26.546Z,12.98
2023-03-14T00:49:54.681Z,11.82
2023-03-14T00:52:23.843Z,11.18
2023-03-14T00:54:51.588Z,16.13
2023-03-14T00:57:19.372Z,8.25
2023-03-14T00:59:47.129Z,15.85
2023-03-14T01:02:15.039Z,20.75
2023-03-14T01:04:44.180Z,14.30
2023-03-14T01:07:12.075Z,22.65
2023-03-14T01:09:41.252Z,15.88
2023-03-14T01:12:09.094Z,16.88
2023-03-14T01:14:37.051Z,13.13
2023-03-14T01:17:04.876Z,15.90
2023-03-14T01:19:32.717Z,16.60
2023-03-14T01:22:00.856Z,17.02
2023-03-14T01:24:28.716Z,14.13
2023-03-14T01:26:57.908Z,16.02
2023-03-14T01:29:25.740Z,16.85
2023-03-14T01:31:53.745Z,20.80
2023-03-14T01:34:21.606Z,13.90
2023-03-14T01:36:49.313Z,13.70
2023-03-14T01:39:17.203Z,13.20
2023-03-14T01:41:45.033Z,8.95
2023-03-14T01:44:15.243Z,19.23
2023-03-14T01:46:44.367Z,15.13
2023-03-14T01:49:31.803Z,7.85
2023-03-14T01:52:03.756Z,17.17
2023-03-14T01:54:36.539Z,12.50
2023-03-14T01:57:08.982Z,14.43
2023-03-14T01:59:40.333Z,13.68
2023-03-14T02:02:11.513Z,12.75
2023-03-14T02:04:43.994Z,9.40
2023-03-14T02:07:16.857Z,18.75
2023-03-14T02:09:45.231Z,15.73
2023-03-14T02:12:18.425Z,14.85
2023-03-14T02:14:49.092Z,14.52
2023-03-14T02:17:18.814Z,11.20
2023-03-14T02:20:06.112Z,16.23
2023-03-14T02:22:35.425Z,12.27
2023-03-14T02:25:10.517Z,11.30
2023-03-14T02:27:40.324Z,13.27
2023-03-14T02:30:12.247Z,15.80
2023-03-14T02:32:44.158Z,13.18
2023-03-14T02:35:16.202Z,12.82
2023-03-14T02:37:48.496Z,9.65
2023-03-14T02:40:16.739Z,18.83
2023-03-14T02:42:45.890Z,14.00
2023-03-14T02:45:43.416Z,14.60
2023-03-14T02:48:16.361Z,17.20
2023-03-14T02:50:45.609Z,11.23
2023-03-14T02:53:16.275Z,17.58
2023-03-14T02:55:48.296Z,13.35
2023-03-14T02:58:18.215Z,19.95
2023-03-14T03:00:46.041Z,16.75
2023-03-14T03:03:14.077Z,13.88
2023-03-14T03:05:41.901Z,13.48
2023-03-14T03:08:10.324Z,12.02
2023-03-14T03:10:38.655Z,15.00
2023-03-14T03:13:06.407Z,29.20
2023-03-14T03:15:35.598Z,14.32
2023-03-14T03:18:03.359Z,16.92
2023-03-14T03:20:31.092Z,18.40
2023-03-14T03:22:58.840Z,12.85
2023-03-14T03:25:26.606Z,18.85
2023-03-14T03:27:55.087Z,17.65
2023-03-14T03:30:23.316Z,17.35
2023-03-14T03:32:52.680Z,19.35
2023-03-14T03:35:20.452Z,12.88
2023-03-14T03:37:48.235Z,11.35
2023-03-14T03:40:16.123Z,14.00
2023-03-14T03:42:43.939Z,14.02
2023-03-14T03:45:12.395Z,8.68
2023-03-14T03:47:40.165Z,14.25
2023-03-14T03:50:10.393Z,20.35
2023-03-14T03:52:38.179Z,16.15
2023-03-14T03:55:06.608Z,11.52
2023-03-14T03:57:34.413Z,12.45
2023-03-14T04:00:02.138Z,12.65
2023-03-14T04:02:29.999Z,11.90
2023-03-14T04:04:58.095Z,13.77
2023-03-14T04:07:27.454Z,16.83
2023-03-14T04:09:55.319Z,13.93
2023-03-14T04:12:23.119Z,17.45
2023-03-14T04:14:50.833Z,14.20
2023-03-14T04:17:18.947Z,13.15
2023-03-14T04:19:47.602Z,17.90
2023-03-14T04:22:15.396Z,11.43
2023-03-14T04:24:44.562Z,10.73
2023-03-14T04:27:12.325Z,9.52
2023-03-14T04:29:40.156Z,13.98
2023-03-14T04:32:07.950Z,13.15
2023-03-14T04:34:35.710Z,12.52
2023-03-14T04:37:03.480Z,11.32
2023-03-14T04:39:31.281Z,14.90
2023-03-14T04:42:00.412Z,10.13
2023-03-14T04:44:28.248Z,8.55
2023-03-14T04:46:56.136Z,8.27
2023-03-14T04:49:23.960Z,8.65
2023-03-14T04:51:52.575Z,12.43
2023-03-14T04:54:20.356Z,12.48
2023-03-14T04:56:48.122Z,9.75
2023-03-14T04:59:17.264Z,11.65
2023-03-14T05:01:45.077Z,8.23
2023-03-14T05:04:12.897Z,8.98
2023-03-14T05:06:41.154Z,6.68
2023-03-14T05:09:08.967Z,9.40
2023-03-14T05:11:36.749Z,8.18
2023-03-14T05:14:04.594Z,8.95
2023-03-14T05:16:33.792Z,6.03
2023-03-14T05:19:02.541Z,10.93
2023-03-14T05:21:36.252Z,13.77
2023-03-14T05:24:04.118Z,9.45
2023-03-14T05:26:32.139Z,8.05
2023-03-14T05:28:59.979Z,9.10
2023-03-14T05:31:27.802Z,9.20
2023-03-14T05:33:56.936Z,5.78
2023-03-14T05:36:24.638Z,10.55
2023-03-14T05:38:52.628Z,13.30
2023-03-14T05:41:20.368Z,12.65
2023-03-14T05:43:48.158Z,6.95
2023-03-14T05:46:15.996Z,9.80
2023-03-14T05:48:43.844Z,10.40
2023-03-14T05:51:12.986Z,8.15
2023-03-14T05:53:40.790Z,9.43
2023-03-14T05:56:09.755Z,10.63
2023-03-14T05:58:37.623Z,20.52
2023-03-14T06:01:06.686Z,6.40
2023-03-14T06:03:34.615Z,7.05
2023-03-14T06:06:03.105Z,7.78
2023-03-14T06:08:32.215Z,8.18
2023-03-14T06:11:00.305Z,4.05
2023-03-14T06:13:28.092Z,9.02
2023-03-14T06:15:55.887Z,5.88
2023-03-14T06:18:23.649Z,11.18
2023-03-14T06:20:51.382Z,3.75
2023-03-14T06:23:19.118Z,5.75
2023-03-14T06:25:48.312Z,4.93
2023-03-14T06:28:16.191Z,9.57
2023-03-14T06:30:43.967Z,5.00
2023-03-14T06:33:11.937Z,5.32
2023-03-14T06:35:39.741Z,6.43
2023-03-14T06:38:07.786Z,9.07
2023-03-14T06:40:35.612Z,7.90
2023-03-14T06:43:04.710Z,6.55
2023-03-14T06:45:32.502Z,10.45
2023-03-14T06:48:00.291Z,8.65
2023-03-14T06:50:28.043Z,9.70
2023-03-14T06:52:55.839Z,3.72
2023-03-14T06:55:23.828Z,5.63
2023-03-14T06:57:53.908Z,4.60
2023-03-14T07:01:06.440Z,2.17
2023-03-14T07:03:34.254Z,6.97
2023-03-14T07:06:02.025Z,4.65
2023-03-14T07:08:29.838Z,6.68
2023-03-14T07:10:58.937Z,4.07
2023-03-14T07:13:26.856Z,7.05
2023-03-14T07:15:56.098Z,7.97
2023-03-14T07:18:23.922Z,4.07
2023-03-14T07:20:51.791Z,9.30
2023-03-14T07:23:19.650Z,8.27
2023-03-14T07:25:47.416Z,10.10
2023-03-14T07:28:15.225Z,7.63
2023-03-14T07:30:43.022Z,8.05
2023-03-14T07:33:12.283Z,11.60
2023-03-14T07:35:40.019Z,12.07
2023-03-14T07:38:07.907Z,3.45
2023-03-14T07:40:35.624Z,14.75
2023-03-14T07:43:05.927Z,10.57
2023-03-14T07:45:39.657Z,9.35
2023-03-14T07:48:10.898Z,10.18
2023-03-14T07:50:40.087Z,14.75
2023-03-14T07:53:07.912Z,12.15
2023-03-14T07:55:35.833Z,10.63
2023-03-14T07:58:03.825Z,10.90
2023-03-14T08:00:31.560Z,9.90
2023-03-14T08:02:59.426Z,14.10
2023-03-14T08:05:27.298Z,10.20
2023-03-14T08:07:56.601Z,2.88
2023-03-14T08:10:24.453Z,8.23
2023-03-14T08:12:52.685Z,3.60
2023-03-14T08:15:20.471Z,5.22
2023-03-14T08:17:51.894Z,11.02
2023-03-14T08:20:20.217Z,7.70
2023-03-14T08:22:48.142Z,10.23
2023-03-14T08:25:17.636Z,5.47
2023-03-14T08:27:46.274Z,9.07
2023-03-14T08:30:16.917Z,10.70
2023-03-14T08:32:45.231Z,5.68
2023-03-14T08:35:13.397Z,8.02
2023-03-14T08:37:41.334Z,8.23
2023-03-14T08:40:11.353Z,9.95
2023-03-14T08:42:42.399Z,11.68
2023-03-14T08:45:13.258Z,6.30
2023-03-14T08:47:41.110Z,8.45
2023-03-14T08:50:10.248Z,6.43
2023-03-14T08:52:38.837Z,6.88
2023-03-14T08:55:07.687Z,10.35
2023-03-14T08:57:35.512Z,5.80
2023-03-14T09:00:09.170Z,9.02
2023-03-14T09:02:37.009Z,8.38
2023-03-14T09:05:05.279Z,9.60
2023-03-14T09:07:33.045Z,8.85
2023-03-14T09:10:00.874Z,9.93
2023-03-14T09:12:28.697Z,10.07
2023-03-14T09:14:56.606Z,5.68
2023-03-14T09:17:25.860Z,11.60
2023-03-14T09:19:53.737Z,6.93
2023-03-14T09:22:21.549Z,9.00
2023-03-14T09:24:49.405Z,6.68
2023-03-14T09:27:18.336Z,11.57
2023-03-14T09:29:46.082Z,11.00
2023-03-14T09:32:13.842Z,14.52
2023-03-14T09:34:43.102Z,13.32
2023-03-14T09:37:10.912Z,11.38
2023-03-14T09:39:38.729Z,19.63
2023-03-14T09:42:09.708Z,18.38
2023-03-14T09:44:47.663Z,23.70
2023-03-14T09:47:16.843Z,14.50
2023-03-14T09:49:45.998Z,14.35
2023-03-14T09:52:16.803Z,20.38
2023-03-14T09:54:47.484Z,23.65
2023-03-14T09:57:18.985Z,24.92
2023-03-14T09:59:48.647Z,21.13
2023-03-14T10:02:22.184Z,18.88
2023-03-14T10:04:53.513Z,21.52
2023-03-14T10:07:25.018Z,32.00
2023-03-14T10:09:53.666Z,28.85
2023-03-14T10:12:32.113Z,30.65
2023-03-14T10:15:05.180Z,33.67
2023-03-14T10:17:40.873Z,35.75
2023-03-14T10:20:33.534Z,38.22
2023-03-14T10:23:02.742Z,33.58
2023-03-14T10:25:38.412Z,38.58
2023-03-14T10:28:08.021Z,40.92
2023-03-14T10:30:45.185Z,36.70
2023-03-14T10:33:22.837Z,37.97
2023-03-14T10:35:57.674Z,26.08
2023-03-14T10:38:27.832Z,37.90
2023-03-14T10:40:57.332Z,22.25
2023-03-14T10:43:28.585Z,30.35
2023-03-14T10:45:59.218Z,30.63
2023-03-14T10:48:33.521Z,26.52
2023-03-14T10:51:07.868Z,23.77
2023-03-14T10:53:47.637Z,32.17
2023-03-14T10:56:16.904Z,30.25
2023-03-14T10:58:46.338Z,28.75
2023-03-14T11:01:34.996Z,35.08
2023-03-14T11:04:12.910Z,32.83
2023-03-14T11:06:46.560Z,33.30
2023-03-14T11:09:23.222Z,22.55
2023-03-14T11:11:51.040Z,30.25
2023-03-14T11:14:27.454Z,38.55
2023-03-14T11:17:02.341Z,26.05
2023-03-14T11:19:53.621Z,31.27
2023-03-14T11:22:34.219Z,34.63
2023-03-14T11:25:25.896Z,20.15
2023-03-14T11:28:02.645Z,18.35
2023-03-14T11:30:37.917Z,24.73
2023-03-14T11:33:15.135Z,32.05
2023-03-14T11:35:49.120Z,18.70
2023-03-14T11:38:31.866Z,23.25
2023-03-14T11:41:01.209Z,21.83
2023-03-14T11:43:33.033Z,17.88
2023-03-14T11:46:08.138Z,22.90
2023-03-14T11:48:47.859Z,21.40
2023-03-14T11:51:25.073Z,16.83
2023-03-14T11:54:06.414Z,18.08
2023-03-14T11:56:39.088Z,12.85
2023-03-14T11:59:14.299Z,8.95
2023-03-14T12:01:53.940Z,13.35
2023-03-14T12:04:32.266Z,7.80
2023-03-14T12:07:05.581Z,16.50
2023-03-14T12:09:36.004Z,12.15
2023-03-14T12:12:07.343Z,15.05
2023-03-14T12:14:37.492Z,12.57
2023-03-14T12:17:20.711Z,19.13
2023-03-14T12:19:50.091Z,19.67
2023-03-14T12:24:56.880Z,18.20
2023-03-14T12:27:45.118Z,14.27
2023-03-14T12:30:25.991Z,21.27
2023-03-14T12:33:33.617Z,16.65
2023-03-14T12:36:24.380Z,14.55
2023-03-14T12:39:12.585Z,14.45
2023-03-14T12:41:49.885Z,14.55
2023-03-14T12:44:44.485Z,22.35
2023-03-14T12:48:00.141Z,11.63
2023-03-14T12:50:34.236Z,17.45
2023-03-14T12:53:23.104Z,15.60
2023-03-14T12:55:59.759Z,16.77
2023-03-14T12:58:37.357Z,15.00
2023-03-14T13:01:08.577Z,17.67
2023-03-14T13:03:45.941Z,16.13
2023-03-14T13:06:14.170Z,16.95
2023-03-14T13:08:43.311Z,13.50
2023-03-14T13:11:14.424Z,13.70
2023-03-14T13:13:50.362Z,14.45
2023-03-14T13:16:20.824Z,12.52
2023-03-14T13:18:50.395Z,11.68
2023-03-14T13:21:20.761Z,4.97
2023-03-14T13:24:00.114Z,10.30
2023-03-14T13:26:36.042Z,11.70
2023-03-14T13:29:18.248Z,12.88
2023-03-14T13:31:47.792Z,10.48
2023-03-14T13:34:15.812Z,12.23
2023-03-14T13:36:43.581Z,9.65
2023-03-14T13:39:15.393Z,9.52
2023-03-14T13:41:44.757Z,11.10
2023-03-14T13:44:24.064Z,13.43
2023-03-14T13:46:51.848Z,18.40
2023-03-14T13:49:24.465Z,17.25
2023-03-14T13:51:52.749Z,15.00
2023-03-14T13:54:21.941Z,11.38
2023-03-14T13:56:50.267Z,10.13
2023-03-14T13:59:27.134Z,12.15
2023-03-14T14:01:56.153Z,18.92
2023-03-14T14:04:27.378Z,29.35
2023-03-14T14:06:58.500Z,10.73
2023-03-14T14:09:29.221Z,14.77
2023-03-14T14:12:15.048Z,14.35
2023-03-14T14:14:50.275Z,12.15
2023-03-14T14:17:22.008Z,12.38
2023-03-14T14:19:50.756Z,9.00
2023-03-14T14:22:19.174Z,10.77
2023-03-14T14:24:47.445Z,11.23
2023-03-14T14:27:18.061Z,17.58
2023-03-14T14:29:59.580Z,13.60
2023-03-14T14:32:27.435Z,9.65
2023-03-14T14:35:00.382Z,11.70
2023-03-14T14:37:29.960Z,7.53
2023-03-14T14:40:00.667Z,17.33
2023-03-14T14:42:31.665Z,13.73
2023-03-14T14:45:01.682Z,16.63
2023-03-14T14:47:31.291Z,13.23
2023-03-14T14:50:03.140Z,10.95
2023-03-14T14:52:39.910Z,11.77
2023-03-14T14:55:14.995Z,15.80
2023-03-14T14:57:49.735Z,10.90
2023-03-14T15:00:23.950Z,7.70
2023-03-14T15:02:55.519Z,10.13
2023-03-14T15:05:25.414Z,15.02
2023-03-14T15:07:53.539Z,7.95
2023-03-14T15:10:23.808Z,10.40
2023-03-14T15:12:51.677Z,11.23
2023-03-14T15:15:21.226Z,7.88
2023-03-14T15:17:49.052Z,14.15
2023-03-14T15:20:19.107Z,11.70
2023-03-14T15:22:47.103Z,13.07
2023-03-14T15:25:34.857Z,9.43
2023-03-14T15:28:02.756Z,9.23
2023-03-14T15:30:32.149Z,11.20
2023-03-14T15:33:00.191Z,7.50
2023-03-14T15:35:28.106Z,24.77
2023-03-14T15:37:56.621Z,13.60
2023-03-14T15:40:28.268Z,17.95
2023-03-14T15:42:57.966Z,12.65
2023-03-14T15:45:25.728Z,11.15
2023-03-14T15:47:54.979Z,13.95
2023-03-14T15:50:22.863Z,12.55
2023-03-14T15:52:50.608Z,13.65
2023-03-14T15:55:18.582Z,10.63
2023-03-14T15:57:47.397Z,9.82
2023-03-14T16:00:18.672Z,10.60
2023-03-14T16:02:46.892Z,15.00
2023-03-14T16:05:16.437Z,9.63
2023-03-14T16:07:44.237Z,12.80
2023-03-14T16:10:14.384Z,11.73
2023-03-14T16:12:42.442Z,11.40
2023-03-14T16:15:11.769Z,6.88
2023-03-14T16:17:41.118Z,14.07
2023-03-14T16:20:10.454Z,12.65
2023-03-14T16:22:39.906Z,12.32
2023-03-14T16:25:09.770Z,13.63
2023-03-14T16:27:37.516Z,24.33
2023-03-14T16:30:07.213Z,9.55
2023-03-14T16:32:35.076Z,19.75
2023-03-14T16:35:04.027Z,13.75
2023-03-14T16:37:31.807Z,10.60
2023-03-14T16:40:12.757Z,18.67
2023-03-14T16:45:29.975Z,14.68
2023-03-14T16:47:57.722Z,17.20
2023-03-14T16:50:25.539Z,10.50
2023-03-14T16:52:55.291Z,14.82
2023-03-14T16:55:24.510Z,18.38
2023-03-14T16:57:52.259Z,9.45
2023-03-14T17:00:21.158Z,10.00
2023-03-14T17:02:48.918Z,12.55
2023-03-14T17:05:16.844Z,13.00
2023-03-14T17:07:44.634Z,13.25
2023-03-14T17:10:12.676Z,14.40
2023-03-14T17:12:41.835Z,15.82
2023-03-14T17:15:10.981Z,8.10
2023-03-14T17:17:39.160Z,12.45
2023-03-14T17:20:09.290Z,21.70
2023-03-14T17:22:37.148Z,13.40
2023-03-14T17:25:05.607Z,13.90
2023-03-14T17:27:33.393Z,22.50
2023-03-14T17:30:02.534Z,27.48
2023-03-14T17:32:30.342Z,20.33
2023-03-14T17:34:58.308Z,12.15
2023-03-14T17:37:26.083Z,13.20
2023-03-14T17:39:53.843Z,14.80
2023-03-14T17:42:21.583Z,8.82
2023-03-14T17:44:50.642Z,12.98
2023-03-14T17:47:19.808Z,12.15
2023-03-14T17:49:47.739Z,9.40
2023-03-14T17:52:15.531Z,10.52
2023-03-14T17:54:43.251Z,11.38
2023-03-14T17:57:11.029Z,8.45
2023-03-14T17:59:38.758Z,12.23
2023-03-14T18:02:06.716Z,25.38
2023-03-14T18:04:36.036Z,11.77
2023-03-14T18:07:04.420Z,12.85
2023-03-14T18:09:32.574Z,8.35
2023-03-14T18:12:07.668Z,14.18
2023-03-14T18:14:36.799Z,10.82
2023-03-14T18:17:05.483Z,13.13
2023-03-14T18:19:34.931Z,20.63
2023-03-14T18:22:02.667Z,17.67
2023-03-14T18:24:30.552Z,23.23
2023-03-14T18:26:58.260Z,14.00
2023-03-14T18:29:27.162Z,14.95
2023-03-14T18:31:56.828Z,22.85
2023-03-14T18:34:24.816Z,16.73
2023-03-14T18:36:54.117Z,15.00
2023-03-14T18:39:22.345Z,9.63
2023-03-14T18:41:50.154Z,14.25
2023-03-14T18:44:17.892Z,18.17
2023-03-14T18:46:45.882Z,9.18
2023-03-14T18:49:14.128Z,9.35
2023-03-14T18:51:43.405Z,14.57
2023-03-14T18:54:12.644Z,13.88
2023-03-14T18:56:41.541Z,20.42
2023-03-14T18:59:10.419Z,14.65
2023-03-14T19:01:38.824Z,14.95
2023-03-14T19:04:09.519Z,13.35
2023-03-14T19:06:38.869Z,10.07
2023-03-14T19:09:07.823Z,11.65
2023-03-14T19:11:36.930Z,11.88
2023-03-14T19:14:05.181Z,12.43
2023-03-14T19:16:33.371Z,13.40
2023-03-14T19:19:02.524Z,11.85
2023-03-14T19:21:32.398Z,9.60
2023-03-14T19:24:00.772Z,13.32
2023-03-14T19:26:29.977Z,11.38
2023-03-14T19:28:59.580Z,25.17
2023-03-14T19:31:28.237Z,16.25
2023-03-14T19:33:56.111Z,14.35
2023-03-14T19:36:26.407Z,10.70
2023-03-14T19:38:55.044Z,11.10
2023-03-14T19:41:24.580Z,15.98
2023-03-14T19:43:53.056Z,9.57
2023-03-14T19:46:23.043Z,13.65
2023-03-14T19:48:54.342Z,25.00
2023-03-14T19:51:23.188Z,10.38
2023-03-14T19:53:51.373Z,13.25
2023-03-14T19:56:20.689Z,13.00
2023-03-14T19:58:48.530Z,14.98
2023-03-14T20:01:16.487Z,15.85
2023-03-14T20:03:46.048Z,12.00
2023-03-14T20:06:14.240Z,18.60
2023-03-14T20:08:43.740Z,18.20
2023-03-14T20:11:11.859Z,10.70
2023-03-14T20:13:40.338Z,17.77
2023-03-14T20:16:10.926Z,14.68
2023-03-14T20:18:39.836Z,18.85
2023-03-14T20:21:12.696Z,25.63
2023-03-14T20:23:40.690Z,27.93
2023-03-14T20:26:08.562Z,21.55
2023-03-14T20:28:36.406Z,14.30
2023-03-14T20:31:07.649Z,16.50
2023-03-14T20:33:35.769Z,14.02
2023-03-14T20:36:03.764Z,16.45
2023-03-14T20:38:34.663Z,14.68
2023-03-14T20:41:02.599Z,11.20
2023-03-14T20:43:32.435Z,13.55
2023-03-14T20:46:02.401Z,15.57
2023-03-14T20:48:32.496Z,14.60
2023-03-14T20:51:01.558Z,11.32
2023-03-14T20:53:29.472Z,12.77
2023-03-14T20:55:58.989Z,9.35
2023-03-14T20:58:26.850Z,10.05
2023-03-14T21:00:56.682Z,15.48
2023-03-14T21:03:25.324Z,8.98
2023-03-14T21:05:53.974Z,14.45
2023-03-14T21:08:24.025Z,14.43
2023-03-14T21:10:53.774Z,16.30
2023-03-14T21:13:23.175Z,18.30
2023-03-14T21:15:51.049Z,19.10
2023-03-14T21:18:19.047Z,20.02
2023-03-14T21:20:46.851Z,19.17
2023-03-14T21:23:17.164Z,18.02
2023-03-14T21:25:45.823Z,12.75
2023-03-14T21:28:13.887Z,19.13
2023-03-14T21:30:43.388Z,18.48
2023-03-14T21:33:11.249Z,19.63
2023-03-14T21:35:39.176Z,13.45
2023-03-14T21:38:06.937Z,11.98
2023-03-14T21:40:34.774Z,13.90
2023-03-14T21:43:02.479Z,17.80
2023-03-14T21:45:30.248Z,9.18
2023-03-14T21:47:59.794Z,11.10
2023-03-14T21:50:28.357Z,15.25
2023-03-14T21:52:57.452Z,9.50
2023-03-14T21:55:26.260Z,4.25
2023-03-14T21:57:55.843Z,7.13
2023-03-14T22:00:25.998Z,6.22
2023-03-14T22:05:45.295Z,4.82
2023-03-14T22:08:13.778Z,6.03
2023-03-14T22:10:44.732Z,2.58
2023-03-14T22:13:12.537Z,1.58
2023-03-14T22:15:40.390Z,4.63
2023-03-14T22:18:08.119Z,5.75
2023-03-14T22:20:36.334Z,3.38
2023-03-14T22:23:05.514Z,4.00
2023-03-14T22:25:33.392Z,1.38
2023-03-14T22:28:01.128Z,3.63
2023-03-14T22:30:29.067Z,1.65
2023-03-14T22:33:02.770Z,5.57
2023-03-14T22:35:33.617Z,3.08
2023-03-14T22:38:01.438Z,3.78
2023-03-14T22:40:30.618Z,5.30
2023-03-14T22:42:58.432Z,4.13
2023-03-14T22:45:26.196Z,3.75
2023-03-14T22:47:53.955Z,4.00
2023-03-14T22:50:21.723Z,6.82
2023-03-14T22:52:49.439Z,3.70
2023-03-14T22:55:17.258Z,12.70
2023-03-14T22:57:46.427Z,5.28
2023-03-14T23:00:16.868Z,6.07
2023-03-14T23:02:44.779Z,3.60
2023-03-14T23:05:12.586Z,6.57
2023-03-14T23:07:40.330Z,7.40
2023-03-14T23:10:09.172Z,6.28
2023-03-14T23:12:36.975Z,6.35
2023-03-14T23:15:08.369Z,3.92
2023-03-14T23:17:36.676Z,11.48
2023-03-14T23:20:06.656Z,12.57
2023-03-14T23:22:34.759Z,4.22
2023-03-14T23:25:03.770Z,8.48
2023-03-14T23:27:32.307Z,4.70
2023-03-14T23:30:02.153Z,3.47
2023-03-14T23:32:32.004Z,5.22
2023-03-14T23:34:59.965Z,3.60
2023-03-14T23:37:27.691Z,5.68
2023-03-14T23:39:55.537Z,4.15
2023-03-14T23:42:25.738Z,3.30
2023-03-14T23:44:54.637Z,3.22
2023-03-14T23:47:22.363Z,3.08
2023-03-14T23:49:51.451Z,2.40
2023-03-14T23:52:19.187Z,1.98
2023-03-14T23:54:47.023Z,2.58
2023-03-14T23:57:15.100Z,2.00
2023-03-14T23:59:43.113Z,2.97
